Time;durP1;ratioP1;P1;durP2;ratioP2;P2;SDS_P1;SDS_P2;PMS_P1;PMS_P2;Temp;Humidity;BMP_temperature;BMP_pressure;BME280_temperature;BME280_humidity;BME280_pressure;Samples;Min_cycle;Max_cycle;Signal;HPM_P1;HPM_P2
2023/04/28 00:02:21;;;;;;;;;;;11.70;74.30;;;;;;4996737;28;20258;-85
2023/04/28 00:04:46;;;;;;;;;;;11.70;74.20;;;;;;5002439;28;19909;-85
2023/04/28 00:07:12;;;;;;;;;;;11.70;74.60;;;;;;4990903;28;19929;-85
2023/04/28 00:09:37;;;;;;;;;;;11.70;74.80;;;;;;5006074;28;19961;-85
2023/04/28 00:12:03;;;;;;;;;;;11.70;74.60;;;;;;5015289;28;19961;-85
2023/04/28 00:14:29;;;;;;;;;;;11.60;74.30;;;;;;5014624;28;19981;-85
2023/04/28 00:16:56;;;;;;;;;;;11.60;74.60;;;;;;5002016;28;19924;-85
2023/04/28 00:19:22;;;;;;;;;;;11.60;74.70;;;;;;5005373;28;19913;-85
2023/04/28 00:21:47;;;;;;;;;;;11.60;75.20;;;;;;4992520;28;19906;-85
2023/04/28 00:24:15;;;;;;;;;;;11.60;75.20;;;;;;4990758;28;20035;-85
2023/04/28 00:26:40;;;;;;;;;;;11.70;75.30;;;;;;4991584;28;19905;-85
2023/04/28 00:29:06;;;;;;;;;;;11.70;75.30;;;;;;5001688;28;19963;-85
2023/04/28 00:31:31;;;;;;;;;;;11.70;75.40;;;;;;5000935;28;19909;-85
2023/04/28 00:33:57;;;;;;;;;;;11.70;75.60;;;;;;5000635;28;19916;-85
2023/04/28 00:36:22;;;;;;;;;;;11.70;75.70;;;;;;5003822;28;19905;-85
2023/04/28 00:38:48;;;;;;;;;;;11.70;76.10;;;;;;5003306;28;19916;-86
2023/04/28 00:41:14;;;;;;;;;;;11.70;75.90;;;;;;4986680;28;19906;-85
2023/04/28 00:43:44;;;;;;;;;;;11.70;76.20;;;;;;4993967;28;19909;-85
2023/04/28 00:46:10;;;;;;;;;;;11.70;76.50;;;;;;4991394;28;19905;-85
2023/04/28 00:48:39;;;;;;;;;;;11.60;76.90;;;;;;4980292;28;19929;-85
2023/04/28 00:51:05;;;;;;;;;;;11.60;77.30;;;;;;4991007;28;19944;-85
2023/04/28 00:53:33;;;;;;;;;;;11.60;78.00;;;;;;5003295;28;19917;-85
2023/04/28 00:55:58;;;;;;;;;;;11.50;77.60;;;;;;4988890;28;19910;-85
2023/04/28 00:58:24;;;;;;;;;;;11.50;78.40;;;;;;4989734;28;19928;-86
2023/04/28 01:00:49;;;;;;;;;;;11.50;79.70;;;;;;4981057;28;19913;-86
2023/04/28 01:03:15;;;;;;;;;;;11.50;81.10;;;;;;4982962;28;19916;-85
2023/04/28 01:05:40;;;;;;;;;;;11.50;81.50;;;;;;4997658;28;19912;-86
2023/04/28 01:08:06;;;;;;;;;;;11.40;81.90;;;;;;4983005;28;19905;-85
2023/04/28 01:10:31;;;;;;;;;;;11.40;82.70;;;;;;5002826;28;19917;-85
2023/04/28 01:12:57;;;;;;;;;;;11.40;82.90;;;;;;4983563;28;20427;-86
2023/04/28 01:15:22;;;;;;;;;;;11.40;83.10;;;;;;4998743;28;20391;-86
2023/04/28 01:17:54;;;;;;;;;;;11.40;82.90;;;;;;5000162;28;19906;-86
2023/04/28 01:20:19;;;;;;;;;;;11.40;82.70;;;;;;5003416;28;20353;-86
2023/04/28 01:22:45;;;;;;;;;;;11.50;82.30;;;;;;4990226;28;19917;-86
2023/04/28 01:25:11;;;;;;;;;;;11.50;82.30;;;;;;4990214;28;19905;-85
2023/04/28 01:27:39;;;;;;;;;;;11.50;81.50;;;;;;5000237;28;19905;-86
2023/04/28 01:30:05;;;;;;;;;;;11.40;81.60;;;;;;4984687;28;19906;-85
2023/04/28 01:32:31;;;;;;;;;;;11.40;82.00;;;;;;4988015;28;19944;-86
2023/04/28 01:34:56;;;;;;;;;;;11.40;81.90;;;;;;4989292;28;19955;-86
2023/04/28 01:37:22;;;;;;;;;;;11.50;82.40;;;;;;4989563;28;20311;-86
2023/04/28 01:39:48;;;;;;;;;;;11.40;82.70;;;;;;4998727;28;20165;-85
2023/04/28 01:42:13;;;;;;;;;;;11.40;82.90;;;;;;5000372;28;20267;-86
2023/04/28 01:44:40;;;;;;;;;;;11.40;83.70;;;;;;4999513;28;20170;-86
2023/04/28 01:47:05;;;;;;;;;;;11.30;84.50;;;;;;4983735;28;19989;-86
2023/04/28 01:49:31;;;;;;;;;;;11.30;84.20;;;;;;4983686;28;19943;-86
2023/04/28 01:51:56;;;;;;;;;;;11.30;84.00;;;;;;4989904;28;20008;-85
2023/04/28 01:57:28;;;;;;;;;;;11.40;85.10;;;;;;5007585;28;19920;-85
2023/04/28 01:59:54;;;;;;;;;;;11.40;87.20;;;;;;5005037;28;19909;-86
2023/04/28 02:02:19;;;;;;;;;;;11.30;89.80;;;;;;4994920;28;19913;-85
2023/04/28 02:04:45;;;;;;;;;;;11.20;90.10;;;;;;4988249;28;19910;-85
2023/04/28 02:07:10;;;;;;;;;;;11.10;90.70;;;;;;4986294;28;20390;-86
2023/04/28 02:09:36;;;;;;;;;;;11.00;91.40;;;;;;4986245;28;20004;-85
2023/04/28 02:12:02;;;;;;;;;;;10.90;92.50;;;;;;4986071;28;20157;-86
2023/04/28 02:14:28;;;;;;;;;;;10.90;92.90;;;;;;4986272;28;20350;-85
2023/04/28 02:16:53;;;;;;;;;;;10.80;93.40;;;;;;4988632;28;19906;-86
2023/04/28 02:19:19;;;;;;;;;;;10.70;94.10;;;;;;5002529;28;19918;-86
2023/04/28 02:21:44;;;;;;;;;;;10.70;94.40;;;;;;4987879;28;20387;-85
2023/04/28 02:24:10;;;;;;;;;;;10.60;95.10;;;;;;4999597;28;19909;-85
2023/04/28 02:26:35;;;;;;;;;;;10.60;95.80;;;;;;4989573;28;19913;-85
2023/04/28 02:29:03;;;;;;;;;;;10.50;96.50;;;;;;4984459;28;19960;-85
2023/04/28 02:31:30;;;;;;;;;;;10.50;97.20;;;;;;4994752;28;19906;-87
2023/04/28 02:33:55;;;;;;;;;;;10.50;97.70;;;;;;4994648;28;20350;-86
2023/04/28 02:36:21;;;;;;;;;;;10.40;99.60;;;;;;4994355;28;19988;-87
2023/04/28 02:38:46;;;;;;;;;;;10.40;99.60;;;;;;4998456;28;20018;-87
2023/04/28 02:41:13;;;;;;;;;;;10.30;99.90;;;;;;4998198;28;19913;-85
2023/04/28 02:43:39;;;;;;;;;;;10.30;99.90;;;;;;4987703;28;19913;-86
2023/04/28 02:46:05;;;;;;;;;;;10.20;99.90;;;;;;4984716;28;19909;-84
2023/04/28 02:48:32;;;;;;;;;;;10.20;99.90;;;;;;4986694;28;20000;-84
2023/04/28 02:50:57;;;;;;;;;;;10.20;99.90;;;;;;4987707;28;20324;-85
2023/04/28 02:53:22;;;;;;;;;;;10.20;99.90;;;;;;4982189;28;19905;-85
2023/04/28 02:55:48;;;;;;;;;;;10.10;99.90;;;;;;4998411;28;19912;-85
2023/04/28 02:58:14;;;;;;;;;;;10.00;99.90;;;;;;4994048;28;19945;-84
2023/04/28 03:00:39;;;;;;;;;;;10.00;99.90;;;;;;5005361;28;19909;-85
2023/04/28 03:03:05;;;;;;;;;;;10.10;99.90;;;;;;4999851;28;19996;-85
2023/04/28 03:05:30;;;;;;;;;;;10.10;99.90;;;;;;4982407;28;19921;-85
2023/04/28 03:07:56;;;;;;;;;;;10.10;99.90;;;;;;4989748;28;19913;-85
2023/04/28 03:10:22;;;;;;;;;;;10.00;99.90;;;;;;5001143;28;20207;-85
2023/04/28 03:12:47;;;;;;;;;;;10.00;99.90;;;;;;4990241;28;19909;-85
2023/04/28 03:15:13;;;;;;;;;;;10.00;99.90;;;;;;4987912;28;20403;-86
2023/04/28 03:17:40;;;;;;;;;;;10.00;99.90;;;;;;5003450;28;19909;-85
2023/04/28 03:20:07;;;;;;;;;;;10.00;99.90;;;;;;5003209;28;19920;-86
2023/04/28 03:22:32;;;;;;;;;;;10.00;99.90;;;;;;4994872;28;19917;-85
2023/04/28 03:24:58;;;;;;;;;;;10.00;99.90;;;;;;4990819;28;19905;-88
2023/04/28 03:27:24;;;;;;;;;;;10.00;99.90;;;;;;5006132;28;19905;-86
2023/04/28 03:29:57;;;;;;;;;;;9.90;99.90;;;;;;4989348;28;19916;-86
2023/04/28 03:32:22;;;;;;;;;;;9.90;99.90;;;;;;4988404;28;20706;-86
2023/04/28 03:34:48;;;;;;;;;;;9.90;99.90;;;;;;4984759;28;19909;-85
2023/04/28 03:37:13;;;;;;;;;;;9.90;99.90;;;;;;4983130;28;19910;-86
2023/04/28 03:39:39;;;;;;;;;;;9.90;99.90;;;;;;4987683;28;19913;-85
2023/04/28 03:42:22;;;;;;;;;;;9.90;99.90;;;;;;4999076;28;20029;-85
2023/04/28 03:44:47;;;;;;;;;;;9.90;99.90;;;;;;4985407;28;20361;-86
2023/04/28 03:47:13;;;;;;;;;;;9.90;99.90;;;;;;5000837;28;19912;-86
2023/04/28 03:49:38;;;;;;;;;;;9.90;99.90;;;;;;5000359;28;19905;-85
2023/04/28 03:52:04;;;;;;;;;;;9.80;99.90;;;;;;4991256;28;20033;-85
2023/04/28 03:54:30;;;;;;;;;;;9.90;99.90;;;;;;5002300;28;19909;-86
2023/04/28 03:56:56;;;;;;;;;;;9.80;99.90;;;;;;4982668;28;19942;-85
2023/04/28 03:59:22;;;;;;;;;;;9.90;99.90;;;;;;4988321;28;20059;-86
2023/04/28 04:01:47;;;;;;;;;;;9.90;99.90;;;;;;4979850;28;20000;-85
2023/04/28 04:04:13;;;;;;;;;;;10.00;99.90;;;;;;4996281;28;19921;-86
2023/04/28 04:06:38;;;;;;;;;;;10.00;99.90;;;;;;4992644;28;19905;-86
2023/04/28 04:09:04;;;;;;;;;;;10.00;99.90;;;;;;4980178;28;19940;-86
2023/04/28 04:11:32;;;;;;;;;;;10.00;99.90;;;;;;5002082;28;19965;-86
2023/04/28 04:13:57;;;;;;;;;;;10.00;99.90;;;;;;4998651;28;19905;-85
2023/04/28 04:16:24;;;;;;;;;;;10.10;99.90;;;;;;4997696;28;19996;-85
2023/04/28 04:18:49;;;;;;;;;;;10.10;99.90;;;;;;4990811;28;20348;-88
2023/04/28 04:21:15;;;;;;;;;;;10.20;99.90;;;;;;4991686;28;19914;-86
2023/04/28 04:23:42;;;;;;;;;;;10.10;99.90;;;;;;4986538;28;19910;-86
2023/04/28 04:26:08;;;;;;;;;;;10.20;99.90;;;;;;4989503;28;19914;-86
2023/04/28 04:28:33;;;;;;;;;;;10.20;99.90;;;;;;4993567;28;19912;-86
2023/04/28 04:30:59;;;;;;;;;;;10.20;99.90;;;;;;4995544;28;19928;-85
2023/04/28 04:33:25;;;;;;;;;;;10.20;99.90;;;;;;4981677;28;19906;-86
2023/04/28 04:35:50;;;;;;;;;;;10.30;99.90;;;;;;4988882;28;19952;-85
2023/04/28 04:38:16;;;;;;;;;;;10.30;99.90;;;;;;4987686;28;19913;-85
2023/04/28 04:40:41;;;;;;;;;;;10.30;99.90;;;;;;4988029;28;20331;-86
2023/04/28 04:43:07;;;;;;;;;;;10.30;99.90;;;;;;4997281;28;19905;-85
2023/04/28 04:45:32;;;;;;;;;;;10.30;99.90;;;;;;5008412;28;19920;-85
2023/04/28 04:47:58;;;;;;;;;;;10.30;99.90;;;;;;5006125;28;19906;-85
2023/04/28 04:50:25;;;;;;;;;;;10.20;99.90;;;;;;5007629;28;19959;-86
2023/04/28 04:52:53;;;;;;;;;;;10.20;99.90;;;;;;4982065;28;20380;-86
2023/04/28 04:55:18;;;;;;;;;;;10.20;99.90;;;;;;4987090;28;19936;-86
2023/04/28 04:57:44;;;;;;;;;;;10.30;99.90;;;;;;4991962;28;20655;-86
2023/04/28 05:00:10;;;;;;;;;;;10.30;99.90;;;;;;4992138;28;20172;-85
2023/04/28 05:02:35;;;;;;;;;;;10.30;99.90;;;;;;4978350;28;19937;-86
2023/04/28 05:05:01;;;;;;;;;;;10.20;99.90;;;;;;4997737;28;19941;-85
2023/04/28 05:07:27;;;;;;;;;;;10.30;99.90;;;;;;4996827;28;19991;-84
2023/04/28 05:09:52;;;;;;;;;;;10.20;99.90;;;;;;4989561;28;19914;-86
2023/04/28 05:12:18;;;;;;;;;;;10.20;99.90;;;;;;5001736;28;19927;-86
2023/04/28 05:14:45;;;;;;;;;;;10.20;99.90;;;;;;4987559;28;19987;-86
2023/04/28 05:17:11;;;;;;;;;;;10.20;99.90;;;;;;4984947;28;20126;-86
2023/04/28 05:19:37;;;;;;;;;;;10.30;99.90;;;;;;4985955;28;20008;-86
2023/04/28 05:22:02;;;;;;;;;;;10.30;99.90;;;;;;4991192;28;19959;-86
2023/04/28 05:24:28;;;;;;;;;;;10.30;99.90;;;;;;4990930;28;19906;-86
2023/04/28 05:26:57;;;;;;;;;;;10.30;99.90;;;;;;4987325;28;19905;-86
2023/04/28 05:29:24;;;;;;;;;;;10.30;99.90;;;;;;4993696;28;19913;-87
2023/04/28 05:31:50;;;;;;;;;;;10.30;99.90;;;;;;4995905;28;20394;-87
2023/04/28 05:34:15;;;;;;;;;;;10.30;99.90;;;;;;4990595;28;20203;-86
2023/04/28 05:36:49;;;;;;;;;;;10.30;99.90;;;;;;4997387;28;19910;-87
2023/04/28 05:39:16;;;;;;;;;;;10.30;99.90;;;;;;4999120;28;19957;-85
2023/04/28 05:41:42;;;;;;;;;;;10.40;99.90;;;;;;4997475;28;19912;-86
2023/04/28 05:44:08;;;;;;;;;;;10.40;99.90;;;;;;4993747;28;19909;-87
2023/04/28 05:46:33;;;;;;;;;;;10.50;99.90;;;;;;4990231;28;19906;-86
2023/04/28 05:48:59;;;;;;;;;;;10.50;99.90;;;;;;5006051;28;19910;-86
2023/04/28 05:51:26;;;;;;;;;;;10.50;99.90;;;;;;5000878;28;19901;-86
2023/04/28 05:53:51;;;;;;;;;;;10.60;99.90;;;;;;5004228;28;19917;-86
2023/04/28 05:56:17;;;;;;;;;;;10.70;99.90;;;;;;4993110;28;19968;-88
2023/04/28 05:58:46;;;;;;;;;;;10.70;99.90;;;;;;4994848;28;19920;-88
2023/04/28 06:01:12;;;;;;;;;;;10.80;99.90;;;;;;4984765;28;20032;-86
2023/04/28 06:03:39;;;;;;;;;;;10.80;99.90;;;;;;4990851;28;19958;-87
2023/04/28 06:06:05;;;;;;;;;;;10.90;99.90;;;;;;4985839;28;19910;-88
2023/04/28 06:08:30;;;;;;;;;;;10.90;99.90;;;;;;4989949;28;19916;-89
2023/04/28 06:10:56;;;;;;;;;;;11.00;99.90;;;;;;4991046;28;20020;-89
2023/04/28 06:13:21;;;;;;;;;;;11.00;99.90;;;;;;4987944;28;19970;-89
2023/04/28 06:15:47;;;;;;;;;;;11.00;99.90;;;;;;4985978;28;20348;-88
2023/04/28 06:18:15;;;;;;;;;;;11.00;99.90;;;;;;4991013;28;19921;-88
2023/04/28 06:20:41;;;;;;;;;;;11.00;99.90;;;;;;4985000;28;19906;-88
2023/04/28 06:23:07;;;;;;;;;;;11.10;99.90;;;;;;4978248;28;19924;-89
2023/04/28 06:25:33;;;;;;;;;;;11.10;99.90;;;;;;4987298;28;20136;-88
2023/04/28 06:27:59;;;;;;;;;;;11.10;99.90;;;;;;4979883;28;19918;-88
2023/04/28 06:30:24;;;;;;;;;;;11.10;99.90;;;;;;4990383;28;20428;-88
2023/04/28 06:32:50;;;;;;;;;;;11.10;99.90;;;;;;5001076;28;19906;-88
2023/04/28 06:35:16;;;;;;;;;;;11.20;99.90;;;;;;4986744;28;20227;-88
2023/04/28 06:37:41;;;;;;;;;;;11.30;99.90;;;;;;4987476;28;19944;-87
2023/04/28 06:40:07;;;;;;;;;;;11.30;99.90;;;;;;4999297;28;19910;-88
2023/04/28 06:42:33;;;;;;;;;;;11.30;99.90;;;;;;5003108;28;19918;-89
2023/04/28 06:44:58;;;;;;;;;;;11.40;99.90;;;;;;5003526;28;19925;-85
2023/04/28 06:47:24;;;;;;;;;;;11.50;99.90;;;;;;5001490;28;19964;-88
2023/04/28 06:49:50;;;;;;;;;;;11.60;99.90;;;;;;4995142;28;20168;-88
2023/04/28 06:52:16;;;;;;;;;;;11.80;99.90;;;;;;5006279;28;19928;-88
2023/04/28 06:54:41;;;;;;;;;;;11.80;99.90;;;;;;5003482;28;19948;-86
2023/04/28 06:57:07;;;;;;;;;;;11.80;99.90;;;;;;4993687;28;19933;-86
2023/04/28 06:59:50;;;;;;;;;;;11.80;99.90;;;;;;4997293;28;19917;-85
2023/04/28 07:02:16;;;;;;;;;;;11.90;99.90;;;;;;4990028;28;19906;-87
2023/04/28 07:04:41;;;;;;;;;;;12.00;99.90;;;;;;4998719;28;20028;-83
2023/04/28 07:07:07;;;;;;;;;;;12.10;99.90;;;;;;5015158;28;19912;-87
2023/04/28 07:09:35;;;;;;;;;;;12.10;99.90;;;;;;4999935;28;19983;-86
2023/04/28 07:12:03;;;;;;;;;;;12.10;99.90;;;;;;4993670;28;19917;-87
2023/04/28 07:14:28;;;;;;;;;;;12.20;99.90;;;;;;4996296;28;19906;-86
2023/04/28 07:16:54;;;;;;;;;;;12.30;99.90;;;;;;4998247;28;19928;-86
2023/04/28 07:19:19;;;;;;;;;;;12.40;99.90;;;;;;5006612;28;20676;-82
2023/04/28 07:21:45;;;;;;;;;;;12.50;99.90;;;;;;5003041;28;20384;-82
2023/04/28 07:24:11;;;;;;;;;;;12.50;99.90;;;;;;4989599;28;19924;-87
2023/04/28 07:26:44;;;;;;;;;;;12.60;99.90;;;;;;4995843;28;19906;-87
2023/04/28 07:29:13;;;;;;;;;;;12.60;99.90;;;;;;4993238;28;19962;-87
2023/04/28 07:31:39;;;;;;;;;;;12.70;99.90;;;;;;4998793;28;20216;-87
2023/04/28 07:34:05;;;;;;;;;;;12.80;99.90;;;;;;5004624;28;20666;-87
2023/04/28 07:36:31;;;;;;;;;;;12.80;99.90;;;;;;4982735;28;19913;-87
2023/04/28 07:38:58;;;;;;;;;;;12.90;99.90;;;;;;4992277;28;20114;-87
2023/04/28 07:41:26;;;;;;;;;;;12.90;99.90;;;;;;4995509;28;20517;-87
2023/04/28 07:43:52;;;;;;;;;;;12.90;99.90;;;;;;4966203;28;19910;-87
2023/04/28 07:46:17;;;;;;;;;;;13.10;99.90;;;;;;4989718;28;19996;-87
2023/04/28 07:48:45;;;;;;;;;;;13.10;99.90;;;;;;4989484;28;20000;-87
2023/04/28 07:51:11;;;;;;;;;;;13.20;99.90;;;;;;4988414;28;19997;-86
2023/04/28 07:53:36;;;;;;;;;;;13.40;99.90;;;;;;4988559;28;20001;-87
2023/04/28 07:56:02;;;;;;;;;;;13.40;99.90;;;;;;4981606;28;19939;-87
2023/04/28 07:58:27;;;;;;;;;;;13.50;99.90;;;;;;4984064;28;20766;-82
2023/04/28 08:00:53;;;;;;;;;;;13.60;99.90;;;;;;4999992;28;19909;-87
2023/04/28 08:03:18;;;;;;;;;;;13.70;99.90;;;;;;4993651;28;20011;-87
2023/04/28 08:05:44;;;;;;;;;;;14.00;99.90;;;;;;4988763;28;19997;-86
2023/04/28 08:08:10;;;;;;;;;;;14.10;99.90;;;;;;4988932;28;19906;-86
2023/04/28 08:10:36;;;;;;;;;;;14.30;99.90;;;;;;5002482;28;19933;-86
2023/04/28 08:13:02;;;;;;;;;;;14.40;99.90;;;;;;5001534;28;20345;-86
2023/04/28 08:15:27;;;;;;;;;;;14.50;99.90;;;;;;4981219;28;19906;-87
2023/04/28 08:17:53;;;;;;;;;;;14.50;99.90;;;;;;4982244;28;20349;-86
2023/04/28 08:20:19;;;;;;;;;;;14.60;99.90;;;;;;4986127;28;20033;-86
2023/04/28 08:22:45;;;;;;;;;;;14.80;99.90;;;;;;4990678;28;19906;-86
2023/04/28 08:25:10;;;;;;;;;;;15.10;99.90;;;;;;4990982;28;20325;-87
2023/04/28 08:27:37;;;;;;;;;;;15.50;99.90;;;;;;5010974;28;19909;-82
2023/04/28 08:30:03;;;;;;;;;;;15.90;99.90;;;;;;5003887;28;20491;-86
2023/04/28 08:32:29;;;;;;;;;;;16.20;99.90;;;;;;5001225;28;19910;-85
2023/04/28 08:34:54;;;;;;;;;;;16.20;99.90;;;;;;4997451;28;19941;-86
2023/04/28 08:37:20;;;;;;;;;;;16.00;99.90;;;;;;4998599;28;19921;-85
2023/04/28 08:39:46;;;;;;;;;;;15.90;99.90;;;;;;5006692;28;19921;-84
2023/04/28 08:42:12;;;;;;;;;;;16.20;99.90;;;;;;5005076;28;19917;-85
2023/04/28 08:44:38;;;;;;;;;;;16.30;99.90;;;;;;5003468;28;20017;-85
2023/04/28 08:47:10;;;;;;;;;;;16.30;99.90;;;;;;4987421;28;20373;-85
2023/04/28 08:49:36;;;;;;;;;;;16.30;99.90;;;;;;5004031;28;19909;-86
2023/04/28 08:52:03;;;;;;;;;;;16.20;99.90;;;;;;4987352;28;19906;-88
2023/04/28 08:54:32;;;;;;;;;;;16.20;99.90;;;;;;4994461;28;19951;-88
2023/04/28 08:56:57;;;;;;;;;;;16.10;99.90;;;;;;4991879;28;19910;-87
2023/04/28 08:59:23;;;;;;;;;;;16.20;99.90;;;;;;4996368;28;19943;-88
2023/04/28 09:01:59;;;;;;;;;;;16.20;99.90;;;;;;5000607;28;19910;-85
2023/04/28 09:04:24;;;;;;;;;;;16.20;99.90;;;;;;5011834;28;19932;-85
2023/04/28 09:06:50;;;;;;;;;;;16.10;99.90;;;;;;4999237;28;19910;-85
2023/04/28 09:09:29;;;;;;;;;;;16.20;99.90;;;;;;5000652;28;19905;-85
2023/04/28 09:11:58;;;;;;;;;;;16.40;99.90;;;;;;4992203;28;19921;-85
2023/04/28 09:14:25;;;;;;;;;;;16.50;99.90;;;;;;5000409;28;19913;-86
2023/04/28 09:16:51;;;;;;;;;;;16.50;99.90;;;;;;5014312;28;19914;-85
2023/04/28 09:19:24;;;;;;;;;;;16.50;99.90;;;;;;5001101;28;19943;-86
2023/04/28 09:21:53;;;;;;;;;;;16.60;99.90;;;;;;5004289;28;19948;-86
2023/04/28 09:24:25;;;;;;;;;;;16.70;99.90;;;;;;4987669;28;20356;-84
2023/04/28 09:26:50;;;;;;;;;;;16.50;99.90;;;;;;4984532;28;19925;-85
2023/04/28 09:29:16;;;;;;;;;;;16.70;99.90;;;;;;4990182;28;19917;-86
2023/04/28 09:31:42;;;;;;;;;;;16.70;99.90;;;;;;4997787;28;19925;-83
2023/04/28 09:34:08;;;;;;;;;;;16.80;99.90;;;;;;4995972;28;20000;-83
2023/04/28 09:36:33;;;;;;;;;;;16.70;99.90;;;;;;4992924;28;19976;-83
2023/04/28 09:38:59;;;;;;;;;;;16.70;99.90;;;;;;4998259;28;19913;-84
2023/04/28 09:41:39;;;;;;;;;;;16.70;99.90;;;;;;4989685;28;19909;-82
2023/04/28 09:44:15;;;;;;;;;;;16.70;99.90;;;;;;4982191;28;19909;-82
2023/04/28 09:46:42;;;;;;;;;;;16.70;99.90;;;;;;5001163;28;19945;-87
2023/04/28 09:49:08;;;;;;;;;;;16.70;99.90;;;;;;4995084;28;19910;-90
2023/04/28 09:51:34;;;;;;;;;;;16.70;99.90;;;;;;4995408;28;19909;-90
2023/04/28 09:54:07;;;;;;;;;;;16.70;99.90;;;;;;4988060;28;19953;-90
2023/04/28 09:56:33;;;;;;;;;;;16.60;99.90;;;;;;4996234;28;19910;-91
2023/04/28 09:59:00;;;;;;;;;;;16.50;99.90;;;;;;4999031;28;19936;-90
2023/04/28 10:01:26;;;;;;;;;;;16.50;99.90;;;;;;4994947;28;20041;-86
2023/04/28 10:03:55;;;;;;;;;;;16.50;99.90;;;;;;5017528;28;19906;-85
2023/04/28 10:06:21;;;;;;;;;;;16.40;99.90;;;;;;5019760;28;19917;-86
2023/04/28 10:08:47;;;;;;;;;;;16.50;99.90;;;;;;4991936;28;19906;-86
2023/04/28 10:11:16;;;;;;;;;;;16.40;99.90;;;;;;4993419;28;20186;-87
2023/04/28 10:13:44;;;;;;;;;;;16.40;99.90;;;;;;4991603;28;20452;-88
2023/04/28 10:16:10;;;;;;;;;;;16.50;99.90;;;;;;4998603;28;19909;-87
2023/04/28 10:18:36;;;;;;;;;;;16.60;99.90;;;;;;4996211;28;20004;-88
2023/04/28 10:21:02;;;;;;;;;;;16.80;99.90;;;;;;4995198;28;20207;-89
2023/04/28 10:23:40;;;;;;;;;;;16.70;99.90;;;;;;4994970;28;19913;-89
2023/04/28 10:26:09;;;;;;;;;;;16.60;99.90;;;;;;4985483;28;19996;-87
2023/04/28 10:28:35;;;;;;;;;;;16.40;99.90;;;;;;5003855;28;19909;-87
2023/04/28 10:31:11;;;;;;;;;;;16.40;99.90;;;;;;4994495;28;19912;-88
2023/04/28 10:33:37;;;;;;;;;;;16.20;99.90;;;;;;4989240;28;20234;-87
2023/04/28 10:36:03;;;;;;;;;;;16.30;99.90;;;;;;4994987;28;19940;-89
2023/04/28 10:38:28;;;;;;;;;;;16.30;99.90;;;;;;5004963;28;19910;-90
2023/04/28 10:40:54;;;;;;;;;;;16.30;99.90;;;;;;4989205;28;20016;-94
2023/04/28 10:43:26;;;;;;;;;;;16.30;99.90;;;;;;4993133;28;20017;-84
2023/04/28 10:45:51;;;;;;;;;;;16.30;99.90;;;;;;4985365;28;19916;-86
2023/04/28 10:48:21;;;;;;;;;;;16.40;99.90;;;;;;5005467;28;19993;-87
2023/04/28 10:51:14;;;;;;;;;;;16.30;99.90;;;;;;5003896;28;19961;-87
2023/04/28 10:53:45;;;;;;;;;;;16.30;99.90;;;;;;4988612;28;19910;-84
2023/04/28 10:56:12;;;;;;;;;;;16.40;99.90;;;;;;4988310;28;19996;-89
2023/04/28 10:58:42;;;;;;;;;;;16.50;99.90;;;;;;5000755;28;19971;-85
2023/04/28 11:03:59;;;;;;;;;;;16.60;99.90;;;;;;4998615;28;19920;-87
2023/04/28 11:06:25;;;;;;;;;;;16.60;99.90;;;;;;4983988;28;19920;-84
2023/04/28 11:08:55;;;;;;;;;;;16.30;99.90;;;;;;4986078;28;19909;-87
2023/04/28 11:11:31;;;;;;;;;;;16.30;99.90;;;;;;5006661;28;19905;-86
2023/04/28 11:14:16;;;;;;;;;;;16.20;99.90;;;;;;5004642;28;20423;-86
2023/04/28 11:16:52;;;;;;;;;;;16.10;99.90;;;;;;4985575;28;19905;-85
2023/04/28 11:19:44;;;;;;;;;;;16.20;99.90;;;;;;5005298;28;20055;-86
2023/04/28 11:22:17;;;;;;;;;;;16.20;99.90;;;;;;5006895;28;19992;-86
2023/04/28 11:25:04;;;;;;;;;;;16.20;99.90;;;;;;4989625;28;20797;-86
2023/04/28 11:27:31;;;;;;;;;;;16.20;99.90;;;;;;4989560;28;19912;-87
2023/04/28 11:29:57;;;;;;;;;;;16.20;99.90;;;;;;4967561;28;20370;-87
2023/04/28 11:32:32;;;;;;;;;;;16.20;99.90;;;;;;4999683;28;19905;-87
2023/04/28 11:34:58;;;;;;;;;;;16.20;99.90;;;;;;5002397;28;19961;-86
2023/04/28 11:37:24;;;;;;;;;;;16.20;99.90;;;;;;5002214;28;19910;-88
2023/04/28 11:39:50;;;;;;;;;;;16.10;99.90;;;;;;4997326;28;20372;-86
2023/04/28 11:42:16;;;;;;;;;;;16.10;99.90;;;;;;4999946;28;19933;-86
2023/04/28 11:44:47;;;;;;;;;;;16.10;99.90;;;;;;4993396;28;20285;-92
2023/04/28 11:47:13;;;;;;;;;;;16.10;99.90;;;;;;4998848;28;19913;-93
2023/04/28 11:50:02;;;;;;;;;;;16.10;99.90;;;;;;5002510;28;19932;-95
2023/04/28 11:52:27;;;;;;;;;;;16.10;99.90;;;;;;4993668;28;19925;-89
2023/04/28 11:54:58;;;;;;;;;;;16.30;99.90;;;;;;5001316;28;20004;-89
2023/04/28 11:57:26;;;;;;;;;;;16.40;99.90;;;;;;4995236;28;19905;-88
2023/04/28 11:59:52;;;;;;;;;;;16.60;99.90;;;;;;4997847;28;19913;-89
2023/04/28 12:02:27;;;;;;;;;;;16.70;99.90;;;;;;4985626;28;19905;-89
2023/04/28 12:04:52;;;;;;;;;;;16.70;99.90;;;;;;4994561;28;19925;-88
2023/04/28 12:07:18;;;;;;;;;;;16.60;99.90;;;;;;4996423;28;19905;-86
2023/04/28 12:09:46;;;;;;;;;;;16.60;99.90;;;;;;4988735;28;20460;-88
2023/04/28 12:12:11;;;;;;;;;;;16.50;99.90;;;;;;5020756;28;19924;-90
2023/04/28 12:15:12;;;;;;;;;;;16.40;99.90;;;;;;5008677;28;19997;-90
2023/04/28 12:17:58;;;;;;;;;;;16.30;99.90;;;;;;4902545;28;20009;-89
2023/04/28 12:20:34;;;;;;;;;;;16.30;99.90;;;;;;4988574;28;19913;-88
2023/04/28 12:23:02;;;;;;;;;;;16.30;99.90;;;;;;4990544;28;19920;-93
2023/04/28 12:25:28;;;;;;;;;;;16.30;99.90;;;;;;4995979;28;19921;-88
2023/04/28 12:28:17;;;;;;;;;;;16.40;99.90;;;;;;4997084;28;19906;-89
2023/04/28 12:30:43;;;;;;;;;;;16.40;99.90;;;;;;4986234;28;19944;-89
2023/04/28 12:33:28;;;;;;;;;;;16.80;99.90;;;;;;4993033;28;20204;-88
2023/04/28 12:35:55;;;;;;;;;;;17.20;99.90;;;;;;4996086;28;19917;-88
2023/04/28 12:38:21;;;;;;;;;;;17.70;99.90;;;;;;4995705;28;19925;-87
2023/04/28 12:40:46;;;;;;;;;;;18.00;99.90;;;;;;4991109;28;19916;-87
2023/04/28 12:43:12;;;;;;;;;;;18.40;99.90;;;;;;4996542;28;19916;-88
2023/04/28 12:45:38;;;;;;;;;;;18.80;99.90;;;;;;4993752;28;19916;-88
2023/04/28 12:48:03;;;;;;;;;;;18.90;99.90;;;;;;4990432;28;19959;-87
2023/04/28 12:50:31;;;;;;;;;;;19.00;99.90;;;;;;4997265;28;19960;-88
2023/04/28 12:52:58;;;;;;;;;;;18.90;99.90;;;;;;5002430;28;19921;-88
2023/04/28 12:55:24;;;;;;;;;;;19.10;99.90;;;;;;5008150;28;19909;-88
2023/04/28 12:57:50;;;;;;;;;;;19.20;99.90;;;;;;5002444;28;19917;-89
2023/04/28 13:00:16;;;;;;;;;;;19.10;99.90;;;;;;4997344;28;19920;-89
2023/04/28 13:02:42;;;;;;;;;;;19.00;99.90;;;;;;4989026;28;19917;-90
2023/04/28 13:05:08;;;;;;;;;;;18.90;99.90;;;;;;4999216;28;20072;-95
2023/04/28 13:07:33;;;;;;;;;;;18.90;99.90;;;;;;4996324;28;20288;-88
2023/04/28 13:09:59;;;;;;;;;;;18.70;99.90;;;;;;5004081;28;19932;-87
2023/04/28 13:12:24;;;;;;;;;;;18.60;99.90;;;;;;5006896;28;19916;-85
2023/04/28 13:14:50;;;;;;;;;;;18.40;99.90;;;;;;5002777;28;19924;-86
2023/04/28 13:17:16;;;;;;;;;;;18.20;99.90;;;;;;5004281;28;19905;-85
2023/04/28 13:19:42;;;;;;;;;;;18.10;99.90;;;;;;5004562;28;19909;-85
2023/04/28 13:22:08;;;;;;;;;;;18.10;99.90;;;;;;5006289;28;20298;-85
2023/04/28 13:24:34;;;;;;;;;;;18.10;99.90;;;;;;5004483;28;19939;-85
2023/04/28 13:27:01;;;;;;;;;;;18.10;99.90;;;;;;4989248;28;19989;-84
2023/04/28 13:29:27;;;;;;;;;;;17.80;99.90;;;;;;4991555;28;20376;-86
2023/04/28 13:31:53;;;;;;;;;;;17.70;99.90;;;;;;4987233;28;19905;-84
2023/04/28 13:34:18;;;;;;;;;;;17.60;99.90;;;;;;4986117;28;19905;-84
2023/04/28 13:36:44;;;;;;;;;;;17.60;99.90;;;;;;4989691;28;20575;-83
2023/04/28 13:39:10;;;;;;;;;;;17.60;99.90;;;;;;4992323;28;20011;-84
2023/04/28 13:41:36;;;;;;;;;;;17.60;99.90;;;;;;5003864;28;19963;-85
2023/04/28 13:44:04;;;;;;;;;;;17.70;99.90;;;;;;4991052;28;20241;-84
2023/04/28 13:46:30;;;;;;;;;;;17.70;99.90;;;;;;4999903;28;19909;-87
2023/04/28 13:48:55;;;;;;;;;;;17.60;99.90;;;;;;4995437;28;19909;-82
2023/04/28 13:51:22;;;;;;;;;;;17.50;99.90;;;;;;4989497;28;20312;-84
2023/04/28 13:53:48;;;;;;;;;;;17.40;99.90;;;;;;5006102;28;19913;-87
2023/04/28 13:56:13;;;;;;;;;;;17.40;99.90;;;;;;5005440;28;20000;-84
2023/04/28 13:58:39;;;;;;;;;;;17.30;99.90;;;;;;5004035;28;19953;-84
2023/04/28 14:01:07;;;;;;;;;;;17.20;99.90;;;;;;5006151;28;19898;-85
2023/04/28 14:03:33;;;;;;;;;;;17.10;99.90;;;;;;5006115;28;19917;-86
2023/04/28 14:05:58;;;;;;;;;;;17.10;99.90;;;;;;5001821;28;20064;-86
2023/04/28 14:08:24;;;;;;;;;;;17.20;99.90;;;;;;5013001;28;19944;-84
2023/04/28 14:10:50;;;;;;;;;;;17.30;99.90;;;;;;4989896;28;19921;-86
2023/04/28 14:13:16;;;;;;;;;;;17.50;99.90;;;;;;4988490;28;19905;-85
2023/04/28 14:15:43;;;;;;;;;;;17.70;99.90;;;;;;4987896;28;20287;-86
2023/04/28 14:18:10;;;;;;;;;;;17.90;99.90;;;;;;4988677;28;19909;-87
2023/04/28 14:20:36;;;;;;;;;;;17.80;99.90;;;;;;4991276;28;19964;-88
2023/04/28 14:23:01;;;;;;;;;;;17.50;99.90;;;;;;4988910;28;19945;-86
2023/04/28 14:25:27;;;;;;;;;;;17.40;99.90;;;;;;4982660;28;20408;-88